sensor_id;sensor_type;location;lat;lon;timestamp;P1;durP1;ratioP1;P2;durP2;ratioP2
45434;SDS011;31183;47.404;8.500;2024-03-07T00:00:05;13.27;;;9.90;;
45434;SDS011;31183;47.404;8.500;2024-03-07T00:02:44;13.88;;;10.57;;
45434;SDS011;31183;47.404;8.500;2024-03-07T00:05:18;15.13;;;10.07;;
45434;SDS011;31183;47.404;8.500;2024-03-07T00:07:46;14.48;;;10.30;;
45434;SDS011;31183;47.404;8.500;2024-03-07T00:10:13;15.32;;;10.77;;
45434;SDS011;31183;47.404;8.500;2024-03-07T00:12:42;13.18;;;10.27;;
45434;SDS011;31183;47.404;8.500;2024-03-07T00:15:09;15.05;;;10.68;;
45434;SDS011;31183;47.404;8.500;2024-03-07T00:17:37;15.65;;;11.05;;
45434;SDS011;31183;47.404;8.500;2024-03-07T00:20:05;14.27;;;10.40;;
45434;SDS011;31183;47.404;8.500;2024-03-07T00:22:36;17.88;;;12.25;;
45434;SDS011;31183;47.404;8.500;2024-03-07T00:25:03;15.20;;;11.05;;
45434;SDS011;31183;47.404;8.500;2024-03-07T00:27:35;16.08;;;11.77;;
45434;SDS011;31183;47.404;8.500;2024-03-07T00:30:02;16.52;;;11.73;;
45434;SDS011;31183;47.404;8.500;2024-03-07T00:32:31;15.73;;;11.25;;
45434;SDS011;31183;47.404;8.500;2024-03-07T00:35:02;17.30;;;12.45;;
45434;SDS011;31183;47.404;8.500;2024-03-07T00:37:31;19.83;;;13.65;;
45434;SDS011;31183;47.404;8.500;2024-03-07T00:39:58;18.92;;;13.23;;
45434;SDS011;31183;47.404;8.500;2024-03-07T00:42:24;18.13;;;12.48;;
45434;SDS011;31183;47.404;8.500;2024-03-07T00:44:53;18.73;;;13.95;;
45434;SDS011;31183;47.404;8.500;2024-03-07T00:47:20;17.75;;;13.30;;
45434;SDS011;31183;47.404;8.500;2024-03-07T00:49:46;16.58;;;11.95;;
45434;SDS011;31183;47.404;8.500;2024-03-07T00:52:13;16.67;;;13.20;;
45434;SDS011;31183;47.404;8.500;2024-03-07T00:54:42;17.75;;;12.57;;
45434;SDS011;31183;47.404;8.500;2024-03-07T00:57:09;16.42;;;12.15;;
45434;SDS011;31183;47.404;8.500;2024-03-07T00:59:35;18.90;;;12.88;;
45434;SDS011;31183;47.404;8.500;2024-03-07T01:02:02;18.70;;;13.45;;
45434;SDS011;31183;47.404;8.500;2024-03-07T01:04:29;18.48;;;13.25;;
45434;SDS011;31183;47.404;8.500;2024-03-07T01:07:00;19.65;;;14.05;;
45434;SDS011;31183;47.404;8.500;2024-03-07T01:09:27;18.58;;;12.70;;
45434;SDS011;31183;47.404;8.500;2024-03-07T01:11:56;15.93;;;11.80;;
45434;SDS011;31183;47.404;8.500;2024-03-07T01:14:26;16.17;;;12.13;;
45434;SDS011;31183;47.404;8.500;2024-03-07T01:16:52;16.90;;;12.35;;
45434;SDS011;31183;47.404;8.500;2024-03-07T01:19:19;17.02;;;13.25;;
45434;SDS011;31183;47.404;8.500;2024-03-07T01:21:46;16.50;;;11.45;;
45434;SDS011;31183;47.404;8.500;2024-03-07T01:24:14;19.30;;;12.30;;
45434;SDS011;31183;47.404;8.500;2024-03-07T01:26:44;16.77;;;11.93;;
45434;SDS011;31183;47.404;8.500;2024-03-07T01:29:11;19.42;;;12.73;;
45434;SDS011;31183;47.404;8.500;2024-03-07T01:31:38;20.00;;;14.05;;
45434;SDS011;31183;47.404;8.500;2024-03-07T01:34:04;17.17;;;12.57;;
45434;SDS011;31183;47.404;8.500;2024-03-07T01:36:31;19.20;;;12.48;;
45434;SDS011;31183;47.404;8.500;2024-03-07T01:38:58;17.13;;;12.75;;
45434;SDS011;31183;47.404;8.500;2024-03-07T01:41:24;21.58;;;15.40;;
45434;SDS011;31183;47.404;8.500;2024-03-07T01:43:51;19.92;;;13.30;;
45434;SDS011;31183;47.404;8.500;2024-03-07T01:46:17;21.40;;;15.00;;
45434;SDS011;31183;47.404;8.500;2024-03-07T01:48:45;21.38;;;14.43;;
45434;SDS011;31183;47.404;8.500;2024-03-07T01:51:14;22.20;;;15.20;;
45434;SDS011;31183;47.404;8.500;2024-03-07T01:53:41;21.02;;;14.85;;
45434;SDS011;31183;47.404;8.500;2024-03-07T01:56:08;21.50;;;15.02;;
45434;SDS011;31183;47.404;8.500;2024-03-07T01:58:35;20.02;;;14.52;;
45434;SDS011;31183;47.404;8.500;2024-03-07T02:01:03;16.65;;;11.98;;
45434;SDS011;31183;47.404;8.500;2024-03-07T02:03:29;21.55;;;14.30;;
45434;SDS011;31183;47.404;8.500;2024-03-07T02:05:56;22.75;;;15.15;;
45434;SDS011;31183;47.404;8.500;2024-03-07T02:08:23;21.63;;;14.65;;
45434;SDS011;31183;47.404;8.500;2024-03-07T02:10:50;19.08;;;13.20;;
45434;SDS011;31183;47.404;8.500;2024-03-07T02:13:16;20.95;;;14.98;;
45434;SDS011;31183;47.404;8.500;2024-03-07T02:15:43;24.08;;;15.60;;
45434;SDS011;31183;47.404;8.500;2024-03-07T02:18:10;24.83;;;16.50;;
45434;SDS011;31183;47.404;8.500;2024-03-07T02:20:37;24.10;;;14.93;;
45434;SDS011;31183;47.404;8.500;2024-03-07T02:23:04;24.08;;;15.25;;
45434;SDS011;31183;47.404;8.500;2024-03-07T02:25:31;21.15;;;14.85;;
45434;SDS011;31183;47.404;8.500;2024-03-07T02:27:58;23.05;;;14.55;;
45434;SDS011;31183;47.404;8.500;2024-03-07T02:30:25;20.45;;;13.05;;
45434;SDS011;31183;47.404;8.500;2024-03-07T02:32:52;22.75;;;14.52;;
45434;SDS011;31183;47.404;8.500;2024-03-07T02:35:22;20.88;;;13.98;;
45434;SDS011;31183;47.404;8.500;2024-03-07T02:37:49;21.92;;;14.65;;
45434;SDS011;31183;47.404;8.500;2024-03-07T02:40:16;18.67;;;12.48;;
45434;SDS011;31183;47.404;8.500;2024-03-07T02:42:43;21.17;;;13.82;;
45434;SDS011;31183;47.404;8.500;2024-03-07T02:45:10;23.85;;;14.90;;
45434;SDS011;31183;47.404;8.500;2024-03-07T02:47:40;23.35;;;13.73;;
45434;SDS011;31183;47.404;8.500;2024-03-07T02:50:08;24.55;;;15.32;;
45434;SDS011;31183;47.404;8.500;2024-03-07T02:52:36;23.73;;;14.90;;
45434;SDS011;31183;47.404;8.500;2024-03-07T02:55:03;22.27;;;13.88;;
45434;SDS011;31183;47.404;8.500;2024-03-07T02:57:31;23.17;;;13.68;;
45434;SDS011;31183;47.404;8.500;2024-03-07T02:59:58;22.48;;;13.43;;
45434;SDS011;31183;47.404;8.500;2024-03-07T03:02:25;20.33;;;13.45;;
45434;SDS011;31183;47.404;8.500;2024-03-07T03:04:51;26.13;;;14.82;;
45434;SDS011;31183;47.404;8.500;2024-03-07T03:07:18;20.35;;;12.90;;
45434;SDS011;31183;47.404;8.500;2024-03-07T03:09:45;20.60;;;12.65;;
45434;SDS011;31183;47.404;8.500;2024-03-07T03:12:13;22.90;;;15.30;;
45434;SDS011;31183;47.404;8.500;2024-03-07T03:14:39;24.77;;;15.10;;
45434;SDS011;31183;47.404;8.500;2024-03-07T03:17:06;17.40;;;11.50;;
45434;SDS011;31183;47.404;8.500;2024-03-07T03:19:35;21.85;;;14.43;;
45434;SDS011;31183;47.404;8.500;2024-03-07T03:22:02;22.70;;;13.82;;
45434;SDS011;31183;47.404;8.500;2024-03-07T03:24:29;19.73;;;11.60;;
45434;SDS011;31183;47.404;8.500;2024-03-07T03:26:56;19.38;;;12.95;;
45434;SDS011;31183;47.404;8.500;2024-03-07T03:29:23;18.73;;;12.38;;
45434;SDS011;31183;47.404;8.500;2024-03-07T03:31:50;21.80;;;13.63;;
45434;SDS011;31183;47.404;8.500;2024-03-07T03:34:17;20.98;;;13.18;;
45434;SDS011;31183;47.404;8.500;2024-03-07T03:36:43;20.85;;;12.60;;
45434;SDS011;31183;47.404;8.500;2024-03-07T03:39:10;20.40;;;13.18;;
45434;SDS011;31183;47.404;8.500;2024-03-07T03:41:39;22.70;;;14.95;;
45434;SDS011;31183;47.404;8.500;2024-03-07T03:44:06;16.10;;;10.98;;
45434;SDS011;31183;47.404;8.500;2024-03-07T03:46:33;19.95;;;11.52;;
45434;SDS011;31183;47.404;8.500;2024-03-07T03:48:59;19.63;;;12.55;;
45434;SDS011;31183;47.404;8.500;2024-03-07T03:51:26;17.95;;;11.70;;
45434;SDS011;31183;47.404;8.500;2024-03-07T03:53:53;23.52;;;13.75;;
45434;SDS011;31183;47.404;8.500;2024-03-07T03:56:20;21.83;;;13.65;;
45434;SDS011;31183;47.404;8.500;2024-03-07T03:58:46;20.92;;;13.95;;
45434;SDS011;31183;47.404;8.500;2024-03-07T04:01:13;21.08;;;13.77;;
45434;SDS011;31183;47.404;8.500;2024-03-07T04:03:41;23.67;;;14.57;;
45434;SDS011;31183;47.404;8.500;2024-03-07T04:06:08;24.10;;;14.63;;
45434;SDS011;31183;47.404;8.500;2024-03-07T04:08:35;20.85;;;13.48;;
45434;SDS011;31183;47.404;8.500;2024-03-07T04:11:03;21.58;;;14.05;;
45434;SDS011;31183;47.404;8.500;2024-03-07T04:13:31;21.77;;;13.80;;
45434;SDS011;31183;47.404;8.500;2024-03-07T04:15:58;20.60;;;13.77;;
45434;SDS011;31183;47.404;8.500;2024-03-07T04:18:25;23.40;;;14.27;;
45434;SDS011;31183;47.404;8.500;2024-03-07T04:20:52;23.02;;;15.23;;
45434;SDS011;31183;47.404;8.500;2024-03-07T04:23:20;21.73;;;13.88;;
45434;SDS011;31183;47.404;8.500;2024-03-07T04:25:47;23.80;;;15.73;;
45434;SDS011;31183;47.404;8.500;2024-03-07T04:28:14;24.92;;;15.45;;
45434;SDS011;31183;47.404;8.500;2024-03-07T04:30:40;23.73;;;16.20;;
45434;SDS011;31183;47.404;8.500;2024-03-07T04:33:08;26.17;;;15.30;;
45434;SDS011;31183;47.404;8.500;2024-03-07T04:35:35;21.77;;;14.20;;
45434;SDS011;31183;47.404;8.500;2024-03-07T04:38:02;23.58;;;14.90;;
45434;SDS011;31183;47.404;8.500;2024-03-07T04:40:29;23.85;;;15.10;;
45434;SDS011;31183;47.404;8.500;2024-03-07T04:42:56;23.90;;;15.27;;
45434;SDS011;31183;47.404;8.500;2024-03-07T04:45:22;24.13;;;15.13;;
45434;SDS011;31183;47.404;8.500;2024-03-07T04:47:49;22.88;;;14.43;;
45434;SDS011;31183;47.404;8.500;2024-03-07T04:50:16;28.52;;;18.30;;
45434;SDS011;31183;47.404;8.500;2024-03-07T04:52:45;23.45;;;14.30;;
45434;SDS011;31183;47.404;8.500;2024-03-07T04:55:12;25.15;;;15.55;;
45434;SDS011;31183;47.404;8.500;2024-03-07T04:57:39;24.25;;;13.90;;
45434;SDS011;31183;47.404;8.500;2024-03-07T05:02:40;24.20;;;14.13;;
45434;SDS011;31183;47.404;8.500;2024-03-07T05:05:07;23.55;;;13.57;;
45434;SDS011;31183;47.404;8.500;2024-03-07T05:07:34;26.40;;;15.25;;
45434;SDS011;31183;47.404;8.500;2024-03-07T05:10:04;27.75;;;16.17;;
45434;SDS011;31183;47.404;8.500;2024-03-07T05:12:33;22.50;;;14.88;;
45434;SDS011;31183;47.404;8.500;2024-03-07T05:15:00;23.70;;;15.07;;
45434;SDS011;31183;47.404;8.500;2024-03-07T05:17:26;25.08;;;14.73;;
45434;SDS011;31183;47.404;8.500;2024-03-07T05:19:55;23.23;;;14.90;;
45434;SDS011;31183;47.404;8.500;2024-03-07T05:22:21;22.50;;;14.73;;
45434;SDS011;31183;47.404;8.500;2024-03-07T05:24:52;23.48;;;14.48;;
45434;SDS011;31183;47.404;8.500;2024-03-07T05:27:21;22.80;;;13.52;;
45434;SDS011;31183;47.404;8.500;2024-03-07T05:29:50;21.40;;;13.40;;
45434;SDS011;31183;47.404;8.500;2024-03-07T05:32:23;26.58;;;14.55;;
45434;SDS011;31183;47.404;8.500;2024-03-07T05:34:54;19.98;;;12.15;;
45434;SDS011;31183;47.404;8.500;2024-03-07T05:37:21;19.90;;;12.85;;
45434;SDS011;31183;47.404;8.500;2024-03-07T05:39:49;21.55;;;13.73;;
45434;SDS011;31183;47.404;8.500;2024-03-07T05:42:17;18.40;;;12.73;;
45434;SDS011;31183;47.404;8.500;2024-03-07T05:44:44;20.13;;;12.55;;
45434;SDS011;31183;47.404;8.500;2024-03-07T05:47:12;19.60;;;13.07;;
45434;SDS011;31183;47.404;8.500;2024-03-07T05:49:42;18.52;;;11.90;;
45434;SDS011;31183;47.404;8.500;2024-03-07T05:52:09;21.52;;;13.70;;
45434;SDS011;31183;47.404;8.500;2024-03-07T05:54:36;20.67;;;12.90;;
45434;SDS011;31183;47.404;8.500;2024-03-07T05:57:03;20.08;;;13.15;;
45434;SDS011;31183;47.404;8.500;2024-03-07T05:59:32;19.98;;;12.50;;
45434;SDS011;31183;47.404;8.500;2024-03-07T06:01:59;18.23;;;12.98;;
45434;SDS011;31183;47.404;8.500;2024-03-07T06:04:26;24.15;;;14.90;;
45434;SDS011;31183;47.404;8.500;2024-03-07T06:06:52;22.23;;;13.10;;
45434;SDS011;31183;47.404;8.500;2024-03-07T06:09:20;20.80;;;13.13;;
45434;SDS011;31183;47.404;8.500;2024-03-07T06:11:50;21.83;;;13.85;;
45434;SDS011;31183;47.404;8.500;2024-03-07T06:14:17;18.90;;;12.68;;
45434;SDS011;31183;47.404;8.500;2024-03-07T06:16:44;20.95;;;12.82;;
45434;SDS011;31183;47.404;8.500;2024-03-07T06:19:11;19.35;;;13.23;;
45434;SDS011;31183;47.404;8.500;2024-03-07T06:21:39;18.27;;;12.88;;
45434;SDS011;31183;47.404;8.500;2024-03-07T06:24:07;17.25;;;12.13;;
45434;SDS011;31183;47.404;8.500;2024-03-07T06:26:36;18.95;;;13.35;;
45434;SDS011;31183;47.404;8.500;2024-03-07T06:29:16;18.27;;;12.50;;
45434;SDS011;31183;47.404;8.500;2024-03-07T06:31:45;20.10;;;12.63;;
45434;SDS011;31183;47.404;8.500;2024-03-07T06:34:16;19.05;;;12.00;;
45434;SDS011;31183;47.404;8.500;2024-03-07T06:36:43;16.70;;;12.05;;
45434;SDS011;31183;47.404;8.500;2024-03-07T06:39:10;20.65;;;12.75;;
45434;SDS011;31183;47.404;8.500;2024-03-07T06:41:37;18.85;;;13.32;;
45434;SDS011;31183;47.404;8.500;2024-03-07T06:44:05;17.38;;;11.75;;
45434;SDS011;31183;47.404;8.500;2024-03-07T06:46:32;19.55;;;13.45;;
45434;SDS011;31183;47.404;8.500;2024-03-07T06:49:00;18.05;;;12.30;;
45434;SDS011;31183;47.404;8.500;2024-03-07T06:51:27;19.35;;;12.45;;
45434;SDS011;31183;47.404;8.500;2024-03-07T06:53:54;19.35;;;12.23;;
45434;SDS011;31183;47.404;8.500;2024-03-07T06:56:22;19.40;;;13.05;;
45434;SDS011;31183;47.404;8.500;2024-03-07T06:58:50;19.35;;;12.98;;
45434;SDS011;31183;47.404;8.500;2024-03-07T07:01:17;17.55;;;12.05;;
45434;SDS011;31183;47.404;8.500;2024-03-07T07:03:44;17.60;;;12.40;;
45434;SDS011;31183;47.404;8.500;2024-03-07T07:06:12;17.33;;;11.90;;
45434;SDS011;31183;47.404;8.500;2024-03-07T07:08:38;20.38;;;13.35;;
45434;SDS011;31183;47.404;8.500;2024-03-07T07:11:05;25.15;;;14.15;;
45434;SDS011;31183;47.404;8.500;2024-03-07T07:13:32;19.33;;;12.95;;
45434;SDS011;31183;47.404;8.500;2024-03-07T07:15:59;18.48;;;13.32;;
45434;SDS011;31183;47.404;8.500;2024-03-07T07:18:27;20.52;;;14.00;;
45434;SDS011;31183;47.404;8.500;2024-03-07T07:20:54;19.63;;;12.77;;
45434;SDS011;31183;47.404;8.500;2024-03-07T07:23:22;21.67;;;14.10;;
45434;SDS011;31183;47.404;8.500;2024-03-07T07:25:49;20.85;;;14.13;;
45434;SDS011;31183;47.404;8.500;2024-03-07T07:28:16;20.60;;;13.00;;
45434;SDS011;31183;47.404;8.500;2024-03-07T07:30:43;19.55;;;12.32;;
45434;SDS011;31183;47.404;8.500;2024-03-07T07:33:11;21.90;;;14.68;;
45434;SDS011;31183;47.404;8.500;2024-03-07T07:35:39;23.13;;;14.18;;
45434;SDS011;31183;47.404;8.500;2024-03-07T07:38:07;21.15;;;13.15;;
45434;SDS011;31183;47.404;8.500;2024-03-07T07:40:36;20.88;;;13.57;;
45434;SDS011;31183;47.404;8.500;2024-03-07T07:43:03;24.92;;;13.40;;
45434;SDS011;31183;47.404;8.500;2024-03-07T07:45:30;23.15;;;14.13;;
45434;SDS011;31183;47.404;8.500;2024-03-07T07:47:58;22.65;;;14.00;;
45434;SDS011;31183;47.404;8.500;2024-03-07T07:50:25;22.55;;;14.75;;
45434;SDS011;31183;47.404;8.500;2024-03-07T07:52:53;24.58;;;15.65;;
45434;SDS011;31183;47.404;8.500;2024-03-07T07:55:21;21.17;;;14.70;;
45434;SDS011;31183;47.404;8.500;2024-03-07T07:57:50;21.77;;;13.73;;
45434;SDS011;31183;47.404;8.500;2024-03-07T08:00:19;24.70;;;13.85;;
45434;SDS011;31183;47.404;8.500;2024-03-07T08:05:21;19.08;;;12.05;;
45434;SDS011;31183;47.404;8.500;2024-03-07T08:07:52;22.52;;;12.75;;
45434;SDS011;31183;47.404;8.500;2024-03-07T08:10:21;22.50;;;13.30;;
45434;SDS011;31183;47.404;8.500;2024-03-07T08:12:49;21.60;;;12.55;;
45434;SDS011;31183;47.404;8.500;2024-03-07T08:15:16;21.25;;;12.25;;
45434;SDS011;31183;47.404;8.500;2024-03-07T08:17:43;20.48;;;12.77;;
45434;SDS011;31183;47.404;8.500;2024-03-07T08:20:11;22.10;;;12.90;;
45434;SDS011;31183;47.404;8.500;2024-03-07T08:22:40;22.83;;;13.43;;
45434;SDS011;31183;47.404;8.500;2024-03-07T08:25:10;21.33;;;13.75;;
45434;SDS011;31183;47.404;8.500;2024-03-07T08:27:40;23.27;;;14.50;;
45434;SDS011;31183;47.404;8.500;2024-03-07T08:30:12;25.08;;;15.60;;
45434;SDS011;31183;47.404;8.500;2024-03-07T08:32:43;25.27;;;15.65;;
45434;SDS011;31183;47.404;8.500;2024-03-07T08:35:11;24.23;;;15.65;;
45434;SDS011;31183;47.404;8.500;2024-03-07T08:38:11;25.88;;;15.52;;
45434;SDS011;31183;47.404;8.500;2024-03-07T08:40:31;24.33;;;14.18;;
45434;SDS011;31183;47.404;8.500;2024-03-07T08:43:00;21.98;;;14.20;;
45434;SDS011;31183;47.404;8.500;2024-03-07T08:45:27;27.13;;;14.07;;
45434;SDS011;31183;47.404;8.500;2024-03-07T08:47:56;25.55;;;14.05;;
45434;SDS011;31183;47.404;8.500;2024-03-07T08:50:25;27.65;;;16.83;;
45434;SDS011;31183;47.404;8.500;2024-03-07T08:52:53;21.77;;;13.45;;
45434;SDS011;31183;47.404;8.500;2024-03-07T08:55:23;22.98;;;14.25;;
45434;SDS011;31183;47.404;8.500;2024-03-07T08:57:53;22.35;;;13.85;;
45434;SDS011;31183;47.404;8.500;2024-03-07T09:00:20;20.40;;;12.82;;
45434;SDS011;31183;47.404;8.500;2024-03-07T09:02:56;24.58;;;14.27;;
45434;SDS011;31183;47.404;8.500;2024-03-07T09:05:26;19.15;;;12.55;;
45434;SDS011;31183;47.404;8.500;2024-03-07T09:07:53;24.10;;;14.93;;
45434;SDS011;31183;47.404;8.500;2024-03-07T09:10:21;21.65;;;13.73;;
45434;SDS011;31183;47.404;8.500;2024-03-07T09:12:49;22.90;;;14.13;;
45434;SDS011;31183;47.404;8.500;2024-03-07T09:15:18;23.73;;;14.23;;
45434;SDS011;31183;47.404;8.500;2024-03-07T09:17:47;19.52;;;11.75;;
45434;SDS011;31183;47.404;8.500;2024-03-07T09:20:14;17.80;;;11.98;;
45434;SDS011;31183;47.404;8.500;2024-03-07T09:22:42;16.70;;;10.60;;
45434;SDS011;31183;47.404;8.500;2024-03-07T09:25:11;18.97;;;11.33;;
45434;SDS011;31183;47.404;8.500;2024-03-07T09:27:42;19.65;;;11.02;;
45434;SDS011;31183;47.404;8.500;2024-03-07T09:30:09;18.90;;;12.00;;
45434;SDS011;31183;47.404;8.500;2024-03-07T09:32:41;20.33;;;11.57;;
45434;SDS011;31183;47.404;8.500;2024-03-07T09:35:08;21.30;;;11.52;;
45434;SDS011;31183;47.404;8.500;2024-03-07T09:37:40;20.25;;;12.80;;
45434;SDS011;31183;47.404;8.500;2024-03-07T09:40:08;22.75;;;12.38;;
45434;SDS011;31183;47.404;8.500;2024-03-07T09:42:46;21.30;;;11.25;;
45434;SDS011;31183;47.404;8.500;2024-03-07T09:45:16;19.00;;;11.48;;
45434;SDS011;31183;47.404;8.500;2024-03-07T09:47:46;24.48;;;11.82;;
45434;SDS011;31183;47.404;8.500;2024-03-07T09:50:16;24.38;;;12.85;;
45434;SDS011;31183;47.404;8.500;2024-03-07T09:52:45;22.77;;;12.52;;
45434;SDS011;31183;47.404;8.500;2024-03-07T09:55:16;24.88;;;13.32;;
45434;SDS011;31183;47.404;8.500;2024-03-07T09:57:45;21.98;;;12.52;;
45434;SDS011;31183;47.404;8.500;2024-03-07T10:00:13;26.05;;;13.43;;
45434;SDS011;31183;47.404;8.500;2024-03-07T10:02:50;21.75;;;12.35;;
45434;SDS011;31183;47.404;8.500;2024-03-07T10:05:20;24.40;;;14.05;;
45434;SDS011;31183;47.404;8.500;2024-03-07T10:07:49;28.63;;;14.90;;
45434;SDS011;31183;47.404;8.500;2024-03-07T10:10:16;29.42;;;15.43;;
45434;SDS011;31183;47.404;8.500;2024-03-07T10:12:43;28.35;;;15.18;;
45434;SDS011;31183;47.404;8.500;2024-03-07T10:15:10;29.45;;;16.13;;
45434;SDS011;31183;47.404;8.500;2024-03-07T10:17:39;26.80;;;14.95;;
45434;SDS011;31183;47.404;8.500;2024-03-07T10:20:11;26.48;;;15.73;;
45434;SDS011;31183;47.404;8.500;2024-03-07T10:22:40;26.70;;;15.05;;
45434;SDS011;31183;47.404;8.500;2024-03-07T10:25:07;29.70;;;16.23;;
45434;SDS011;31183;47.404;8.500;2024-03-07T10:27:35;27.48;;;14.98;;
45434;SDS011;31183;47.404;8.500;2024-03-07T10:30:03;27.13;;;14.52;;
45434;SDS011;31183;47.404;8.500;2024-03-07T10:32:30;33.22;;;16.33;;
45434;SDS011;31183;47.404;8.500;2024-03-07T10:34:58;25.42;;;14.77;;
45434;SDS011;31183;47.404;8.500;2024-03-07T10:37:25;33.15;;;17.23;;
45434;SDS011;31183;47.404;8.500;2024-03-07T10:39:52;35.60;;;17.85;;
45434;SDS011;31183;47.404;8.500;2024-03-07T10:42:19;34.88;;;17.90;;
45434;SDS011;31183;47.404;8.500;2024-03-07T10:44:48;39.22;;;20.98;;
45434;SDS011;31183;47.404;8.500;2024-03-07T10:47:19;37.88;;;19.98;;
45434;SDS011;31183;47.404;8.500;2024-03-07T10:49:57;34.55;;;18.88;;
45434;SDS011;31183;47.404;8.500;2024-03-07T10:52:39;32.95;;;17.55;;
45434;SDS011;31183;47.404;8.500;2024-03-07T10:58:00;34.97;;;18.70;;
45434;SDS011;31183;47.404;8.500;2024-03-07T11:00:32;33.38;;;18.67;;
45434;SDS011;31183;47.404;8.500;2024-03-07T11:03:03;32.58;;;17.90;;
45434;SDS011;31183;47.404;8.500;2024-03-07T11:05:35;33.92;;;18.40;;
45434;SDS011;31183;47.404;8.500;2024-03-07T11:08:03;30.52;;;16.65;;
45434;SDS011;31183;47.404;8.500;2024-03-07T11:10:40;31.38;;;19.35;;
45434;SDS011;31183;47.404;8.500;2024-03-07T11:13:07;30.40;;;17.77;;
45434;SDS011;31183;47.404;8.500;2024-03-07T11:15:39;28.27;;;16.02;;
45434;SDS011;31183;47.404;8.500;2024-03-07T11:18:09;27.70;;;15.50;;
45434;SDS011;31183;47.404;8.500;2024-03-07T11:20:39;32.20;;;16.35;;
45434;SDS011;31183;47.404;8.500;2024-03-07T11:23:24;31.48;;;16.67;;
45434;SDS011;31183;47.404;8.500;2024-03-07T11:25:55;30.80;;;16.70;;
45434;SDS011;31183;47.404;8.500;2024-03-07T11:28:38;27.80;;;16.23;;
45434;SDS011;31183;47.404;8.500;2024-03-07T11:31:10;30.45;;;16.63;;
45434;SDS011;31183;47.404;8.500;2024-03-07T11:33:40;28.38;;;15.63;;
45434;SDS011;31183;47.404;8.500;2024-03-07T11:36:08;27.98;;;16.20;;
45434;SDS011;31183;47.404;8.500;2024-03-07T11:38:44;28.00;;;16.25;;
45434;SDS011;31183;47.404;8.500;2024-03-07T11:41:12;25.85;;;15.18;;
45434;SDS011;31183;47.404;8.500;2024-03-07T11:43:40;26.65;;;15.07;;
45434;SDS011;31183;47.404;8.500;2024-03-07T11:46:08;24.20;;;14.50;;
45434;SDS011;31183;47.404;8.500;2024-03-07T11:48:41;32.60;;;15.82;;
45434;SDS011;31183;47.404;8.500;2024-03-07T11:51:08;27.55;;;16.23;;
45434;SDS011;31183;47.404;8.500;2024-03-07T11:53:39;27.50;;;14.95;;
45434;SDS011;31183;47.404;8.500;2024-03-07T11:56:07;32.28;;;16.38;;
45434;SDS011;31183;47.404;8.500;2024-03-07T11:58:38;29.17;;;15.93;;
45434;SDS011;31183;47.404;8.500;2024-03-07T12:01:08;33.03;;;17.67;;
45434;SDS011;31183;47.404;8.500;2024-03-07T12:03:39;31.35;;;16.45;;
45434;SDS011;31183;47.404;8.500;2024-03-07T12:06:07;31.73;;;17.30;;
45434;SDS011;31183;47.404;8.500;2024-03-07T12:08:39;34.55;;;20.40;;
45434;SDS011;31183;47.404;8.500;2024-03-07T12:11:08;34.20;;;18.65;;
45434;SDS011;31183;47.404;8.500;2024-03-07T12:13:38;37.28;;;19.60;;
45434;SDS011;31183;47.404;8.500;2024-03-07T12:16:06;36.55;;;18.67;;
45434;SDS011;31183;47.404;8.500;2024-03-07T12:18:35;39.95;;;20.02;;
45434;SDS011;31183;47.404;8.500;2024-03-07T12:21:02;40.90;;;19.83;;
45434;SDS011;31183;47.404;8.500;2024-03-07T12:23:33;36.35;;;17.83;;
45434;SDS011;31183;47.404;8.500;2024-03-07T12:26:00;32.22;;;17.27;;
45434;SDS011;31183;47.404;8.500;2024-03-07T12:28:28;33.33;;;19.27;;
45434;SDS011;31183;47.404;8.500;2024-03-07T12:30:59;32.45;;;17.65;;
45434;SDS011;31183;47.404;8.500;2024-03-07T12:36:01;29.63;;;16.55;;
45434;SDS011;31183;47.404;8.500;2024-03-07T12:38:33;27.58;;;16.58;;
45434;SDS011;31183;47.404;8.500;2024-03-07T12:41:07;30.15;;;15.85;;
45434;SDS011;31183;47.404;8.500;2024-03-07T12:43:39;29.67;;;15.15;;
45434;SDS011;31183;47.404;8.500;2024-03-07T12:46:12;28.47;;;17.47;;
45434;SDS011;31183;47.404;8.500;2024-03-07T12:48:41;26.95;;;15.30;;
45434;SDS011;31183;47.404;8.500;2024-03-07T12:51:10;28.98;;;16.60;;
45434;SDS011;31183;47.404;8.500;2024-03-07T12:53:41;30.35;;;15.48;;
45434;SDS011;31183;47.404;8.500;2024-03-07T12:56:08;29.30;;;15.40;;
45434;SDS011;31183;47.404;8.500;2024-03-07T12:58:35;27.50;;;16.73;;
45434;SDS011;31183;47.404;8.500;2024-03-07T13:01:02;26.25;;;15.07;;
45434;SDS011;31183;47.404;8.500;2024-03-07T13:03:29;26.00;;;14.75;;
45434;SDS011;31183;47.404;8.500;2024-03-07T13:05:58;23.38;;;14.02;;
45434;SDS011;31183;47.404;8.500;2024-03-07T13:08:27;22.60;;;13.57;;
45434;SDS011;31183;47.404;8.500;2024-03-07T13:10:57;25.75;;;14.57;;
45434;SDS011;31183;47.404;8.500;2024-03-07T13:13:26;24.85;;;14.27;;
45434;SDS011;31183;47.404;8.500;2024-03-07T13:15:53;23.73;;;13.75;;
45434;SDS011;31183;47.404;8.500;2024-03-07T13:18:21;26.15;;;14.63;;
45434;SDS011;31183;47.404;8.500;2024-03-07T13:20:48;24.52;;;14.20;;
45434;SDS011;31183;47.404;8.500;2024-03-07T13:23:14;25.42;;;15.48;;
45434;SDS011;31183;47.404;8.500;2024-03-07T13:25:41;22.38;;;13.07;;
45434;SDS011;31183;47.404;8.500;2024-03-07T13:28:13;23.10;;;14.38;;
45434;SDS011;31183;47.404;8.500;2024-03-07T13:30:49;25.77;;;14.52;;
45434;SDS011;31183;47.404;8.500;2024-03-07T13:33:16;23.27;;;13.23;;
45434;SDS011;31183;47.404;8.500;2024-03-07T13:35:43;23.52;;;13.82;;
45434;SDS011;31183;47.404;8.500;2024-03-07T13:38:10;25.27;;;14.20;;
45434;SDS011;31183;47.404;8.500;2024-03-07T13:40:39;23.17;;;13.65;;
45434;SDS011;31183;47.404;8.500;2024-03-07T13:43:06;25.02;;;14.48;;
45434;SDS011;31183;47.404;8.500;2024-03-07T13:45:34;18.52;;;11.93;;
45434;SDS011;31183;47.404;8.500;2024-03-07T13:48:10;24.80;;;15.02;;
45434;SDS011;31183;47.404;8.500;2024-03-07T13:50:40;26.52;;;14.90;;
45434;SDS011;31183;47.404;8.500;2024-03-07T13:53:26;27.55;;;14.55;;
45434;SDS011;31183;47.404;8.500;2024-03-07T13:56:06;24.65;;;14.10;;
45434;SDS011;31183;47.404;8.500;2024-03-07T13:58:54;24.90;;;14.13;;
45434;SDS011;31183;47.404;8.500;2024-03-07T14:01:47;24.73;;;16.42;;
45434;SDS011;31183;47.404;8.500;2024-03-07T14:04:39;23.65;;;13.77;;
45434;SDS011;31183;47.404;8.500;2024-03-07T14:16:18;25.23;;;14.73;;
45434;SDS011;31183;47.404;8.500;2024-03-07T14:19:01;24.27;;;14.20;;
45434;SDS011;31183;47.404;8.500;2024-03-07T14:27:36;24.60;;;14.88;;
45434;SDS011;31183;47.404;8.500;2024-03-07T14:30:20;25.25;;;14.23;;
45434;SDS011;31183;47.404;8.500;2024-03-07T14:33:06;26.20;;;15.23;;
45434;SDS011;31183;47.404;8.500;2024-03-07T14:36:17;25.63;;;15.15;;
45434;SDS011;31183;47.404;8.500;2024-03-07T14:38:40;24.17;;;14.15;;
45434;SDS011;31183;47.404;8.500;2024-03-07T14:41:15;26.58;;;16.40;;
45434;SDS011;31183;47.404;8.500;2024-03-07T14:43:44;24.90;;;14.18;;
45434;SDS011;31183;47.404;8.500;2024-03-07T14:46:12;24.17;;;14.45;;
45434;SDS011;31183;47.404;8.500;2024-03-07T14:48:41;29.42;;;15.50;;
45434;SDS011;31183;47.404;8.500;2024-03-07T14:51:08;26.45;;;14.82;;
45434;SDS011;31183;47.404;8.500;2024-03-07T14:53:40;26.52;;;14.95;;
45434;SDS011;31183;47.404;8.500;2024-03-07T14:56:08;26.50;;;15.15;;